sensor_id;sensor_type;location;lat;lon;timestamp;pressure;altitude;pressure_sealevel;temperature;humidity
69219;BME280;56232;53.384;-2.732;2023-10-31T00:01:30;99344.17;;;8.85;49.34
69219;BME280;56232;53.384;-2.732;2023-10-31T00:03:56;99347.84;;;8.82;49.21
69219;BME280;56232;53.384;-2.732;2023-10-31T00:06:22;99349.37;;;8.80;49.57
69219;BME280;56232;53.384;-2.732;2023-10-31T00:08:47;99352.75;;;9.39;49.77
69219;BME280;56232;53.384;-2.732;2023-10-31T00:11:13;99357.46;;;8.89;49.70
69219;BME280;56232;53.384;-2.732;2023-10-31T00:13:39;99357.22;;;9.51;49.18
69219;BME280;56232;53.384;-2.732;2023-10-31T00:16:05;99362.23;;;8.91;49.67
69219;BME280;56232;53.384;-2.732;2023-10-31T00:18:30;99360.66;;;9.42;49.39
69219;BME280;56232;53.384;-2.732;2023-10-31T00:20:56;99361.28;;;10.02;49.85
69219;BME280;56232;53.384;-2.732;2023-10-31T00:23:22;99360.89;;;9.13;49.60
69219;BME280;56232;53.384;-2.732;2023-10-31T00:25:47;99358.07;;;9.09;49.48
69219;BME280;56232;53.384;-2.732;2023-10-31T00:28:13;99357.77;;;9.08;49.03
69219;BME280;56232;53.384;-2.732;2023-10-31T00:30:38;99354.12;;;8.94;49.49
69219;BME280;56232;53.384;-2.732;2023-10-31T00:33:04;99350.93;;;8.94;49.40
69219;BME280;56232;53.384;-2.732;2023-10-31T00:35:29;99349.52;;;8.99;49.19
69219;BME280;56232;53.384;-2.732;2023-10-31T00:37:55;99353.33;;;9.02;49.20
69219;BME280;56232;53.384;-2.732;2023-10-31T00:40:21;99353.15;;;8.88;48.79
69219;BME280;56232;53.384;-2.732;2023-10-31T00:42:46;99351.68;;;8.89;49.43
69219;BME280;56232;53.384;-2.732;2023-10-31T00:45:12;99350.64;;;8.91;48.97
69219;BME280;56232;53.384;-2.732;2023-10-31T00:47:38;99348.65;;;8.94;49.51
69219;BME280;56232;53.384;-2.732;2023-10-31T00:50:04;99346.57;;;9.99;50.00
69219;BME280;56232;53.384;-2.732;2023-10-31T00:52:29;99347.19;;;9.67;49.42
69219;BME280;56232;53.384;-2.732;2023-10-31T00:54:55;99347.29;;;9.04;49.24
69219;BME280;56232;53.384;-2.732;2023-10-31T00:57:20;99353.54;;;9.13;48.67
69219;BME280;56232;53.384;-2.732;2023-10-31T00:59:46;99354.79;;;8.93;49.24
69219;BME280;56232;53.384;-2.732;2023-10-31T01:02:11;99355.90;;;8.70;48.39
69219;BME280;56232;53.384;-2.732;2023-10-31T01:04:37;99353.47;;;8.95;49.75
69219;BME280;56232;53.384;-2.732;2023-10-31T01:07:03;99354.56;;;8.99;49.86
69219;BME280;56232;53.384;-2.732;2023-10-31T01:09:28;99361.90;;;8.45;49.29
69219;BME280;56232;53.384;-2.732;2023-10-31T01:11:54;99362.41;;;8.21;49.29
69219;BME280;56232;53.384;-2.732;2023-10-31T01:14:20;99365.47;;;8.62;49.91
69219;BME280;56232;53.384;-2.732;2023-10-31T01:16:45;99364.00;;;9.15;49.54
69219;BME280;56232;53.384;-2.732;2023-10-31T01:19:11;99366.64;;;7.97;49.58
69219;BME280;56232;53.384;-2.732;2023-10-31T01:21:37;99365.88;;;8.31;49.80
69219;BME280;56232;53.384;-2.732;2023-10-31T01:24:02;99370.71;;;7.62;49.72
69219;BME280;56232;53.384;-2.732;2023-10-31T01:26:28;99369.13;;;7.89;50.51
69219;BME280;56232;53.384;-2.732;2023-10-31T01:28:54;99368.37;;;8.35;50.47
69219;BME280;56232;53.384;-2.732;2023-10-31T01:31:19;99372.03;;;8.35;50.42
69219;BME280;56232;53.384;-2.732;2023-10-31T01:33:45;99374.52;;;8.29;50.56
69219;BME280;56232;53.384;-2.732;2023-10-31T01:36:10;99375.59;;;8.37;51.03
69219;BME280;56232;53.384;-2.732;2023-10-31T01:38:36;99373.89;;;8.49;51.08
69219;BME280;56232;53.384;-2.732;2023-10-31T01:41:02;99371.45;;;8.72;50.16
69219;BME280;56232;53.384;-2.732;2023-10-31T01:43:30;99375.74;;;8.41;50.52
69219;BME280;56232;53.384;-2.732;2023-10-31T01:45:53;99376.78;;;8.26;50.43
69219;BME280;56232;53.384;-2.732;2023-10-31T01:48:19;99375.77;;;7.59;50.75
69219;BME280;56232;53.384;-2.732;2023-10-31T01:50:44;99375.60;;;8.20;51.10
69219;BME280;56232;53.384;-2.732;2023-10-31T01:53:10;99373.50;;;7.76;50.69
69219;BME280;56232;53.384;-2.732;2023-10-31T01:55:36;99374.52;;;7.76;50.89
69219;BME280;56232;53.384;-2.732;2023-10-31T01:58:01;99368.01;;;8.26;50.87
69219;BME280;56232;53.384;-2.732;2023-10-31T02:00:27;99370.30;;;7.88;50.88
69219;BME280;56232;53.384;-2.732;2023-10-31T02:02:53;99367.73;;;8.19;50.46
69219;BME280;56232;53.384;-2.732;2023-10-31T02:05:18;99363.17;;;8.22;50.89
69219;BME280;56232;53.384;-2.732;2023-10-31T02:07:44;99360.37;;;8.15;50.58
69219;BME280;56232;53.384;-2.732;2023-10-31T02:10:09;99364.07;;;8.16;51.08
69219;BME280;56232;53.384;-2.732;2023-10-31T02:12:36;99367.57;;;8.08;50.91
69219;BME280;56232;53.384;-2.732;2023-10-31T02:15:01;99366.72;;;8.09;51.18
69219;BME280;56232;53.384;-2.732;2023-10-31T02:17:27;99368.82;;;7.97;50.95
69219;BME280;56232;53.384;-2.732;2023-10-31T02:19:53;99367.82;;;7.81;50.72
69219;BME280;56232;53.384;-2.732;2023-10-31T02:22:18;99371.27;;;7.20;51.11
69219;BME280;56232;53.384;-2.732;2023-10-31T02:24:44;99370.83;;;7.50;51.00
69219;BME280;56232;53.384;-2.732;2023-10-31T02:27:09;99366.04;;;6.90;51.57
69219;BME280;56232;53.384;-2.732;2023-10-31T02:29:35;99367.37;;;7.54;51.53
69219;BME280;56232;53.384;-2.732;2023-10-31T02:32:01;99362.10;;;7.57;51.59
69219;BME280;56232;53.384;-2.732;2023-10-31T02:34:26;99361.85;;;7.53;51.15
69219;BME280;56232;53.384;-2.732;2023-10-31T02:36:53;99357.57;;;7.36;51.34
69219;BME280;56232;53.384;-2.732;2023-10-31T02:39:17;99350.35;;;7.40;51.37
69219;BME280;56232;53.384;-2.732;2023-10-31T02:41:43;99347.41;;;7.38;51.51
69219;BME280;56232;53.384;-2.732;2023-10-31T02:44:09;99341.82;;;7.04;51.22
69219;BME280;56232;53.384;-2.732;2023-10-31T02:46:38;99342.18;;;7.38;50.99
69219;BME280;56232;53.384;-2.732;2023-10-31T02:49:00;99342.23;;;7.42;51.58
69219;BME280;56232;53.384;-2.732;2023-10-31T02:51:26;99340.47;;;7.63;51.57
69219;BME280;56232;53.384;-2.732;2023-10-31T02:53:52;99338.48;;;7.82;51.50
69219;BME280;56232;53.384;-2.732;2023-10-31T02:56:19;99334.68;;;7.92;51.25
69219;BME280;56232;53.384;-2.732;2023-10-31T02:58:43;99333.06;;;8.12;51.29
69219;BME280;56232;53.384;-2.732;2023-10-31T03:01:09;99334.86;;;7.73;50.85
69219;BME280;56232;53.384;-2.732;2023-10-31T03:03:34;99339.66;;;8.24;50.79
69219;BME280;56232;53.384;-2.732;2023-10-31T03:06:00;99338.16;;;7.67;51.28
69219;BME280;56232;53.384;-2.732;2023-10-31T03:08:25;99341.08;;;8.34;51.06
69219;BME280;56232;53.384;-2.732;2023-10-31T03:10:52;99337.85;;;8.39;50.54
69219;BME280;56232;53.384;-2.732;2023-10-31T03:13:17;99334.30;;;8.22;50.40
69219;BME280;56232;53.384;-2.732;2023-10-31T03:15:42;99333.90;;;7.74;50.66
69219;BME280;56232;53.384;-2.732;2023-10-31T03:18:08;99330.35;;;8.31;50.55
69219;BME280;56232;53.384;-2.732;2023-10-31T03:20:34;99331.04;;;8.22;50.26
69219;BME280;56232;53.384;-2.732;2023-10-31T03:22:59;99327.36;;;7.88;49.90
69219;BME280;56232;53.384;-2.732;2023-10-31T03:25:25;99323.98;;;8.20;50.59
69219;BME280;56232;53.384;-2.732;2023-10-31T03:27:51;99323.48;;;7.47;51.07
69219;BME280;56232;53.384;-2.732;2023-10-31T03:30:16;99323.10;;;7.62;50.86
69219;BME280;56232;53.384;-2.732;2023-10-31T03:32:42;99322.86;;;7.71;50.99
69219;BME280;56232;53.384;-2.732;2023-10-31T03:35:08;99325.85;;;7.76;51.29
69219;BME280;56232;53.384;-2.732;2023-10-31T03:37:33;99324.36;;;7.93;50.89
69219;BME280;56232;53.384;-2.732;2023-10-31T03:39:59;99327.68;;;8.08;51.22
69219;BME280;56232;53.384;-2.732;2023-10-31T03:42:25;99333.20;;;8.42;50.96
69219;BME280;56232;53.384;-2.732;2023-10-31T03:44:51;99337.35;;;8.02;50.68
69219;BME280;56232;53.384;-2.732;2023-10-31T03:47:16;99338.97;;;8.15;50.59
69219;BME280;56232;53.384;-2.732;2023-10-31T03:49:42;99342.42;;;7.87;50.48
69219;BME280;56232;53.384;-2.732;2023-10-31T03:52:07;99348.91;;;8.95;50.30
69219;BME280;56232;53.384;-2.732;2023-10-31T03:54:33;99346.56;;;8.40;49.91
69219;BME280;56232;53.384;-2.732;2023-10-31T03:56:59;99350.62;;;8.21;50.23
69219;BME280;56232;53.384;-2.732;2023-10-31T03:59:24;99352.24;;;8.70;50.66
69219;BME280;56232;53.384;-2.732;2023-10-31T04:01:50;99354.49;;;8.32;50.12
69219;BME280;56232;53.384;-2.732;2023-10-31T04:04:16;99362.10;;;7.81;50.45
69219;BME280;56232;53.384;-2.732;2023-10-31T04:06:41;99360.45;;;8.48;50.39
69219;BME280;56232;53.384;-2.732;2023-10-31T04:09:07;99360.61;;;8.58;50.32
69219;BME280;56232;53.384;-2.732;2023-10-31T04:11:33;99358.38;;;8.60;49.81
69219;BME280;56232;53.384;-2.732;2023-10-31T04:13:58;99362.36;;;8.01;50.47
69219;BME280;56232;53.384;-2.732;2023-10-31T04:16:24;99357.31;;;8.14;50.27
69219;BME280;56232;53.384;-2.732;2023-10-31T04:18:50;99359.71;;;8.82;50.05
69219;BME280;56232;53.384;-2.732;2023-10-31T04:21:15;99362.01;;;8.50;50.23
69219;BME280;56232;53.384;-2.732;2023-10-31T04:23:41;99360.51;;;8.60;49.64
69219;BME280;56232;53.384;-2.732;2023-10-31T04:26:07;99361.55;;;8.72;49.86
69219;BME280;56232;53.384;-2.732;2023-10-31T04:28:32;99363.37;;;8.60;49.52
69219;BME280;56232;53.384;-2.732;2023-10-31T04:30:58;99364.18;;;8.56;49.71
69219;BME280;56232;53.384;-2.732;2023-10-31T04:33:24;99365.97;;;9.03;50.07
69219;BME280;56232;53.384;-2.732;2023-10-31T04:35:49;99370.12;;;8.53;49.93
69219;BME280;56232;53.384;-2.732;2023-10-31T04:38:15;99372.42;;;8.55;49.78
69219;BME280;56232;53.384;-2.732;2023-10-31T04:40:41;99373.02;;;7.95;49.77
69219;BME280;56232;53.384;-2.732;2023-10-31T04:43:06;99375.26;;;9.08;49.98
69219;BME280;56232;53.384;-2.732;2023-10-31T04:45:32;99373.68;;;8.98;49.91
69219;BME280;56232;53.384;-2.732;2023-10-31T04:47:58;99373.16;;;8.27;49.98
69219;BME280;56232;53.384;-2.732;2023-10-31T04:50:23;99371.25;;;8.16;49.76
69219;BME280;56232;53.384;-2.732;2023-10-31T04:52:49;99374.81;;;8.97;49.95
69219;BME280;56232;53.384;-2.732;2023-10-31T04:55:15;99377.66;;;8.41;50.14
69219;BME280;56232;53.384;-2.732;2023-10-31T04:57:40;99376.81;;;8.45;50.30
69219;BME280;56232;53.384;-2.732;2023-10-31T05:00:07;99378.37;;;7.83;50.32
69219;BME280;56232;53.384;-2.732;2023-10-31T05:02:32;99378.56;;;7.79;50.54
69219;BME280;56232;53.384;-2.732;2023-10-31T05:04:57;99378.63;;;8.23;50.41
69219;BME280;56232;53.384;-2.732;2023-10-31T05:07:24;99379.92;;;8.42;50.37
69219;BME280;56232;53.384;-2.732;2023-10-31T05:09:49;99385.19;;;8.52;50.60
69219;BME280;56232;53.384;-2.732;2023-10-31T05:12:15;99381.61;;;8.80;50.29
69219;BME280;56232;53.384;-2.732;2023-10-31T05:14:40;99380.72;;;8.84;49.78
69219;BME280;56232;53.384;-2.732;2023-10-31T05:17:06;99381.75;;;8.48;50.36
69219;BME280;56232;53.384;-2.732;2023-10-31T05:19:32;99385.91;;;8.60;49.82
69219;BME280;56232;53.384;-2.732;2023-10-31T05:22:02;99389.99;;;8.70;49.65
69219;BME280;56232;53.384;-2.732;2023-10-31T05:24:23;99394.16;;;8.69;49.55
69219;BME280;56232;53.384;-2.732;2023-10-31T05:26:48;99395.86;;;8.77;49.96
69219;BME280;56232;53.384;-2.732;2023-10-31T05:29:14;99395.83;;;8.84;49.83
69219;BME280;56232;53.384;-2.732;2023-10-31T05:31:40;99396.65;;;9.31;49.62
69219;BME280;56232;53.384;-2.732;2023-10-31T05:34:05;99395.76;;;9.25;49.53
69219;BME280;56232;53.384;-2.732;2023-10-31T05:36:31;99398.21;;;9.34;49.57
69219;BME280;56232;53.384;-2.732;2023-10-31T05:38:57;99397.45;;;8.73;49.87
69219;BME280;56232;53.384;-2.732;2023-10-31T05:41:23;99398.56;;;9.18;49.24
69219;BME280;56232;53.384;-2.732;2023-10-31T05:43:48;99400.06;;;8.69;49.87
69219;BME280;56232;53.384;-2.732;2023-10-31T05:46:14;99405.04;;;8.76;49.93
69219;BME280;56232;53.384;-2.732;2023-10-31T05:48:40;99406.69;;;9.38;49.67
69219;BME280;56232;53.384;-2.732;2023-10-31T05:51:11;99407.86;;;8.95;49.81
69219;BME280;56232;53.384;-2.732;2023-10-31T05:53:31;99409.00;;;9.08;49.73
69219;BME280;56232;53.384;-2.732;2023-10-31T05:55:56;99406.14;;;8.95;49.57
69219;BME280;56232;53.384;-2.732;2023-10-31T05:58:22;99408.70;;;8.98;49.54
69219;BME280;56232;53.384;-2.732;2023-10-31T06:00:48;99409.08;;;9.00;49.74
69219;BME280;56232;53.384;-2.732;2023-10-31T06:03:13;99414.39;;;9.14;49.75
69219;BME280;56232;53.384;-2.732;2023-10-31T06:05:39;99413.09;;;9.28;49.73
69219;BME280;56232;53.384;-2.732;2023-10-31T06:08:05;99411.85;;;10.40;49.49
69219;BME280;56232;53.384;-2.732;2023-10-31T06:10:30;99413.05;;;9.83;49.76
69219;BME280;56232;53.384;-2.732;2023-10-31T06:12:56;99411.94;;;9.51;49.49
69219;BME280;56232;53.384;-2.732;2023-10-31T06:15:21;99409.13;;;9.39;49.26
69219;BME280;56232;53.384;-2.732;2023-10-31T06:17:47;99411.64;;;8.63;49.08
69219;BME280;56232;53.384;-2.732;2023-10-31T06:20:13;99409.69;;;9.20;49.53
69219;BME280;56232;53.384;-2.732;2023-10-31T06:22:38;99411.84;;;9.15;49.39
69219;BME280;56232;53.384;-2.732;2023-10-31T06:25:05;99414.10;;;9.18;49.26
69219;BME280;56232;53.384;-2.732;2023-10-31T06:27:30;99422.11;;;8.68;49.74
69219;BME280;56232;53.384;-2.732;2023-10-31T06:29:55;99424.00;;;9.43;49.89
69219;BME280;56232;53.384;-2.732;2023-10-31T06:32:21;99429.05;;;9.64;49.79
69219;BME280;56232;53.384;-2.732;2023-10-31T06:34:47;99432.48;;;9.15;49.35
69219;BME280;56232;53.384;-2.732;2023-10-31T06:37:12;99434.35;;;8.69;49.50
69219;BME280;56232;53.384;-2.732;2023-10-31T06:39:38;99436.00;;;9.58;49.10
69219;BME280;56232;53.384;-2.732;2023-10-31T06:42:04;99434.82;;;9.56;49.06
69219;BME280;56232;53.384;-2.732;2023-10-31T06:44:29;99434.44;;;9.56;49.52
69219;BME280;56232;53.384;-2.732;2023-10-31T06:46:55;99438.34;;;9.76;49.81
69219;BME280;56232;53.384;-2.732;2023-10-31T06:49:21;99438.09;;;9.84;49.38
69219;BME280;56232;53.384;-2.732;2023-10-31T06:51:46;99442.91;;;9.96;48.81
69219;BME280;56232;53.384;-2.732;2023-10-31T06:54:12;99445.05;;;9.84;49.29
69219;BME280;56232;53.384;-2.732;2023-10-31T06:56:38;99450.87;;;9.16;48.70
69219;BME280;56232;53.384;-2.732;2023-10-31T06:59:04;99450.42;;;9.54;49.38
69219;BME280;56232;53.384;-2.732;2023-10-31T07:01:29;99453.73;;;8.98;49.13
69219;BME280;56232;53.384;-2.732;2023-10-31T07:03:55;99456.14;;;9.62;49.74
69219;BME280;56232;53.384;-2.732;2023-10-31T07:06:21;99460.41;;;9.36;49.58
69219;BME280;56232;53.384;-2.732;2023-10-31T07:08:46;99461.41;;;9.13;48.91
69219;BME280;56232;53.384;-2.732;2023-10-31T07:11:12;99464.15;;;10.20;49.25
69219;BME280;56232;53.384;-2.732;2023-10-31T07:13:37;99468.78;;;9.58;48.73
69219;BME280;56232;53.384;-2.732;2023-10-31T07:16:04;99472.58;;;10.14;49.21
69219;BME280;56232;53.384;-2.732;2023-10-31T07:18:29;99476.72;;;9.15;48.75
69219;BME280;56232;53.384;-2.732;2023-10-31T07:20:55;99477.32;;;9.93;48.79
69219;BME280;56232;53.384;-2.732;2023-10-31T07:23:20;99476.82;;;9.80;48.94
69219;BME280;56232;53.384;-2.732;2023-10-31T07:25:46;99479.10;;;9.83;48.74
69219;BME280;56232;53.384;-2.732;2023-10-31T07:28:12;99482.89;;;9.67;49.08
69219;BME280;56232;53.384;-2.732;2023-10-31T07:30:37;99489.13;;;9.66;48.99
69219;BME280;56232;53.384;-2.732;2023-10-31T07:33:03;99491.07;;;9.64;49.53
69219;BME280;56232;53.384;-2.732;2023-10-31T07:35:28;99495.71;;;9.83;49.43
69219;BME280;56232;53.384;-2.732;2023-10-31T07:37:55;99494.53;;;9.75;48.91
69219;BME280;56232;53.384;-2.732;2023-10-31T07:40:20;99496.26;;;9.68;49.36
69219;BME280;56232;53.384;-2.732;2023-10-31T07:42:45;99494.05;;;9.06;49.40
69219;BME280;56232;53.384;-2.732;2023-10-31T07:45:11;99493.43;;;9.80;49.42
69219;BME280;56232;53.384;-2.732;2023-10-31T07:47:37;99493.23;;;9.89;48.52
69219;BME280;56232;53.384;-2.732;2023-10-31T07:50:03;99493.13;;;8.87;49.10
69219;BME280;56232;53.384;-2.732;2023-10-31T07:52:28;99493.39;;;10.14;49.56
69219;BME280;56232;53.384;-2.732;2023-10-31T07:54:55;99495.07;;;10.41;49.25
69219;BME280;56232;53.384;-2.732;2023-10-31T07:57:19;99497.88;;;10.50;48.79
69219;BME280;56232;53.384;-2.732;2023-10-31T07:59:45;99502.09;;;9.95;48.27
69219;BME280;56232;53.384;-2.732;2023-10-31T08:02:11;99504.91;;;9.51;49.23
69219;BME280;56232;53.384;-2.732;2023-10-31T08:04:36;99507.31;;;9.66;48.92
69219;BME280;56232;53.384;-2.732;2023-10-31T08:07:02;99509.18;;;9.66;48.80
69219;BME280;56232;53.384;-2.732;2023-10-31T08:09:28;99510.87;;;10.06;48.83
69219;BME280;56232;53.384;-2.732;2023-10-31T08:11:55;99508.86;;;9.60;48.36
69219;BME280;56232;53.384;-2.732;2023-10-31T08:14:19;99512.63;;;9.67;48.83
69219;BME280;56232;53.384;-2.732;2023-10-31T08:16:45;99511.82;;;10.08;48.86
69219;BME280;56232;53.384;-2.732;2023-10-31T08:19:10;99515.76;;;10.20;48.78
69219;BME280;56232;53.384;-2.732;2023-10-31T08:21:36;99518.95;;;9.61;49.10
69219;BME280;56232;53.384;-2.732;2023-10-31T08:24:02;99519.00;;;9.69;49.05
69219;BME280;56232;53.384;-2.732;2023-10-31T08:26:27;99521.35;;;9.15;48.73
69219;BME280;56232;53.384;-2.732;2023-10-31T08:28:55;99517.07;;;11.03;49.02
69219;BME280;56232;53.384;-2.732;2023-10-31T08:31:19;99516.73;;;9.95;48.46
69219;BME280;56232;53.384;-2.732;2023-10-31T08:33:44;99521.56;;;9.23;48.75
69219;BME280;56232;53.384;-2.732;2023-10-31T08:36:10;99520.52;;;9.85;48.03
69219;BME280;56232;53.384;-2.732;2023-10-31T08:38:36;99523.89;;;9.76;49.06
69219;BME280;56232;53.384;-2.732;2023-10-31T08:41:02;99522.76;;;9.79;48.74
69219;BME280;56232;53.384;-2.732;2023-10-31T08:43:27;99523.10;;;9.64;48.36
69219;BME280;56232;53.384;-2.732;2023-10-31T08:45:54;99524.01;;;9.52;48.87
69219;BME280;56232;53.384;-2.732;2023-10-31T08:48:19;99528.18;;;9.95;48.71
69219;BME280;56232;53.384;-2.732;2023-10-31T08:50:44;99529.99;;;9.92;49.02
69219;BME280;56232;53.384;-2.732;2023-10-31T08:53:10;99531.23;;;10.09;49.25
69219;BME280;56232;53.384;-2.732;2023-10-31T08:55:35;99533.35;;;9.60;48.60
69219;BME280;56232;53.384;-2.732;2023-10-31T08:58:01;99535.05;;;9.59;49.17
69219;BME280;56232;53.384;-2.732;2023-10-31T09:00:27;99533.42;;;9.53;48.99
69219;BME280;56232;53.384;-2.732;2023-10-31T09:02:53;99535.15;;;9.61;49.29
69219;BME280;56232;53.384;-2.732;2023-10-31T09:05:18;99534.28;;;9.47;48.83
69219;BME280;56232;53.384;-2.732;2023-10-31T09:07:44;99534.61;;;10.48;49.25
69219;BME280;56232;53.384;-2.732;2023-10-31T09:10:11;99533.07;;;9.74;48.92
69219;BME280;56232;53.384;-2.732;2023-10-31T09:12:35;99530.77;;;9.29;48.88
69219;BME280;56232;53.384;-2.732;2023-10-31T09:15:01;99531.67;;;10.34;49.12
69219;BME280;56232;53.384;-2.732;2023-10-31T09:17:26;99530.79;;;9.29;49.46
69219;BME280;56232;53.384;-2.732;2023-10-31T09:19:53;99533.88;;;9.48;49.23
69219;BME280;56232;53.384;-2.732;2023-10-31T09:22:18;99534.74;;;9.95;49.12
69219;BME280;56232;53.384;-2.732;2023-10-31T09:24:43;99537.52;;;9.43;49.50
69219;BME280;56232;53.384;-2.732;2023-10-31T09:27:10;99540.42;;;10.07;49.68
69219;BME280;56232;53.384;-2.732;2023-10-31T09:29:35;99542.91;;;9.62;49.77
69219;BME280;56232;53.384;-2.732;2023-10-31T09:32:00;99544.31;;;10.19;49.40
69219;BME280;56232;53.384;-2.732;2023-10-31T09:34:26;99542.15;;;9.60;49.78
69219;BME280;56232;53.384;-2.732;2023-10-31T09:36:52;99542.39;;;9.45;49.38
69219;BME280;56232;53.384;-2.732;2023-10-31T09:39:17;99543.04;;;9.29;49.88
69219;BME280;56232;53.384;-2.732;2023-10-31T09:41:43;99546.40;;;9.35;49.81
69219;BME280;56232;53.384;-2.732;2023-10-31T09:44:09;99546.62;;;9.60;49.89
69219;BME280;56232;53.384;-2.732;2023-10-31T09:46:34;99546.26;;;9.44;50.53
69219;BME280;56232;53.384;-2.732;2023-10-31T09:49:00;99547.48;;;9.01;50.62
69219;BME280;56232;53.384;-2.732;2023-10-31T09:51:26;99549.16;;;9.60;50.50
69219;BME280;56232;53.384;-2.732;2023-10-31T09:53:54;99553.90;;;9.40;50.76
69219;BME280;56232;53.384;-2.732;2023-10-31T09:56:17;99556.12;;;10.03;50.53
69219;BME280;56232;53.384;-2.732;2023-10-31T09:58:43;99559.35;;;9.52;50.71
69219;BME280;56232;53.384;-2.732;2023-10-31T10:01:08;99559.48;;;9.69;50.89
69219;BME280;56232;53.384;-2.732;2023-10-31T10:03:34;99561.96;;;9.20;50.31
69219;BME280;56232;53.384;-2.732;2023-10-31T10:06:01;99562.79;;;9.88;50.50
69219;BME280;56232;53.384;-2.732;2023-10-31T10:08:25;99562.81;;;10.10;50.55
69219;BME280;56232;53.384;-2.732;2023-10-31T10:10:51;99563.86;;;9.91;50.72
69219;BME280;56232;53.384;-2.732;2023-10-31T10:13:17;99561.00;;;9.43;49.91
69219;BME280;56232;53.384;-2.732;2023-10-31T10:15:44;99563.87;;;10.50;49.68
69219;BME280;56232;53.384;-2.732;2023-10-31T10:18:08;99566.97;;;10.01;50.38
69219;BME280;56232;53.384;-2.732;2023-10-31T10:20:33;99565.08;;;11.10;50.66
69219;BME280;56232;53.384;-2.732;2023-10-31T10:23:03;99568.90;;;10.89;50.50
69219;BME280;56232;53.384;-2.732;2023-10-31T10:25:25;99568.10;;;11.05;50.03
69219;BME280;56232;53.384;-2.732;2023-10-31T10:27:50;99564.64;;;11.21;50.08
69219;BME280;56232;53.384;-2.732;2023-10-31T10:30:16;99563.37;;;10.65;50.20
69219;BME280;56232;53.384;-2.732;2023-10-31T10:32:42;99564.01;;;11.40;50.27
69219;BME280;56232;53.384;-2.732;2023-10-31T10:35:08;99567.68;;;10.92;49.68
69219;BME280;56232;53.384;-2.732;2023-10-31T10:37:37;99567.28;;;11.27;49.99
69219;BME280;56232;53.384;-2.732;2023-10-31T10:39:59;99560.45;;;11.82;49.10
69219;BME280;56232;53.384;-2.732;2023-10-31T10:42:30;99558.67;;;12.30;49.28
69219;BME280;56232;53.384;-2.732;2023-10-31T10:44:50;99555.43;;;12.57;49.08
69219;BME280;56232;53.384;-2.732;2023-10-31T10:47:15;99557.90;;;12.29;48.54
69219;BME280;56232;53.384;-2.732;2023-10-31T10:49:42;99558.38;;;12.17;49.32
69219;BME280;56232;53.384;-2.732;2023-10-31T10:52:17;99559.28;;;11.19;49.67
69219;BME280;56232;53.384;-2.732;2023-10-31T10:54:35;99563.09;;;11.57;49.24
69219;BME280;56232;53.384;-2.732;2023-10-31T10:57:05;99563.02;;;11.44;49.90
69219;BME280;56232;53.384;-2.732;2023-10-31T10:59:30;99564.30;;;12.20;49.64
69219;BME280;56232;53.384;-2.732;2023-10-31T11:01:49;99566.20;;;12.27;49.71
69219;BME280;56232;53.384;-2.732;2023-10-31T11:04:14;99570.66;;;11.30;49.43
69219;BME280;56232;53.384;-2.732;2023-10-31T11:06:40;99567.92;;;12.24;49.59
69219;BME280;56232;53.384;-2.732;2023-10-31T11:09:05;99572.82;;;12.09;50.02
69219;BME280;56232;53.384;-2.732;2023-10-31T11:11:31;99575.92;;;11.71;49.25
69219;BME280;56232;53.384;-2.732;2023-10-31T11:13:56;99569.04;;;11.48;49.56
69219;BME280;56232;53.384;-2.732;2023-10-31T11:16:28;99571.50;;;12.67;49.68
69219;BME280;56232;53.384;-2.732;2023-10-31T11:18:47;99574.32;;;12.42;49.66
69219;BME280;56232;53.384;-2.732;2023-10-31T11:21:12;99576.40;;;11.94;49.34
69219;BME280;56232;53.384;-2.732;2023-10-31T11:23:38;99578.47;;;13.05;49.49
69219;BME280;56232;53.384;-2.732;2023-10-31T11:26:06;99579.67;;;12.86;49.62
69219;BME280;56232;53.384;-2.732;2023-10-31T11:28:32;99580.21;;;12.37;49.24
69219;BME280;56232;53.384;-2.732;2023-10-31T11:30:56;99579.61;;;12.57;49.06
69219;BME280;56232;53.384;-2.732;2023-10-31T11:33:21;99581.19;;;12.54;49.31
69219;BME280;56232;53.384;-2.732;2023-10-31T11:35:50;99580.73;;;12.33;48.65
69219;BME280;56232;53.384;-2.732;2023-10-31T11:38:12;99580.40;;;12.39;49.49
69219;BME280;56232;53.384;-2.732;2023-10-31T11:40:38;99581.92;;;12.50;49.12
69219;BME280;56232;53.384;-2.732;2023-10-31T11:43:04;99583.01;;;12.64;49.43
69219;BME280;56232;53.384;-2.732;2023-10-31T11:45:30;99583.72;;;12.73;49.33
69219;BME280;56232;53.384;-2.732;2023-10-31T11:47:55;99584.43;;;12.73;48.91
69219;BME280;56232;53.384;-2.732;2023-10-31T11:50:21;99584.01;;;12.71;49.11
69219;BME280;56232;53.384;-2.732;2023-10-31T11:52:45;99584.68;;;12.70;49.02
69219;BME280;56232;53.384;-2.732;2023-10-31T11:55:11;99586.60;;;12.57;48.73
69219;BME280;56232;53.384;-2.732;2023-10-31T11:57:37;99589.56;;;12.05;49.29
69219;BME280;56232;53.384;-2.732;2023-10-31T12:00:02;99588.90;;;12.69;48.96
69219;BME280;56232;53.384;-2.732;2023-10-31T12:02:27;99590.15;;;13.73;49.10
69219;BME280;56232;53.384;-2.732;2023-10-31T12:07:19;99587.23;;;12.55;48.76
69219;BME280;56232;53.384;-2.732;2023-10-31T12:09:46;99588.09;;;13.01;48.70
69219;BME280;56232;53.384;-2.732;2023-10-31T12:12:10;99586.89;;;12.84;47.43
69219;BME280;56232;53.384;-2.732;2023-10-31T12:14:35;99580.65;;;12.50;49.08
69219;BME280;56232;53.384;-2.732;2023-10-31T12:17:04;99576.74;;;13.14;49.36
69219;BME280;56232;53.384;-2.732;2023-10-31T12:19:26;99579.88;;;12.11;48.02
69219;BME280;56232;53.384;-2.732;2023-10-31T12:21:51;99581.20;;;12.44;48.94
69219;BME280;56232;53.384;-2.732;2023-10-31T12:24:18;99576.01;;;12.58;48.25
69219;BME280;56232;53.384;-2.732;2023-10-31T12:26:43;99579.06;;;13.75;49.25
69219;BME280;56232;53.384;-2.732;2023-10-31T12:29:09;99578.90;;;12.64;48.75
69219;BME280;56232;53.384;-2.732;2023-10-31T12:31:34;99583.88;;;12.61;48.82
69219;BME280;56232;53.384;-2.732;2023-10-31T12:34:04;99588.07;;;12.66;49.50
69219;BME280;56232;53.384;-2.732;2023-10-31T12:36:24;99589.28;;;12.78;49.25
69219;BME280;56232;53.384;-2.732;2023-10-31T12:38:50;99589.73;;;12.81;49.03
69219;BME280;56232;53.384;-2.732;2023-10-31T12:41:16;99591.02;;;13.02;49.09
69219;BME280;56232;53.384;-2.732;2023-10-31T12:43:41;99594.96;;;13.37;49.03
69219;BME280;56232;53.384;-2.732;2023-10-31T12:48:32;99589.86;;;13.20;47.65
69219;BME280;56232;53.384;-2.732;2023-10-31T12:51:06;99596.21;;;12.82;48.32
69219;BME280;56232;53.384;-2.732;2023-10-31T12:53:23;99597.48;;;13.14;48.11